Time;durP1;ratioP1;P1;durP2;ratioP2;P2;SDS_P1;SDS_P2;PMS_P1;PMS_P2;Temp;Humidity;BMP_temperature;BMP_pressure;BME280_temperature;BME280_humidity;BME280_pressure;Samples;Min_cycle;Max_cycle;Signal;HPM_P1;HPM_P2
2022/02/27 00:01:22;;;;;;;53.28;30.05;;;;;;;-0.64;100.00;103096.06;5074324;28;20020;-69
2022/02/27 00:03:48;;;;;;;55.97;30.65;;;;;;;-0.57;100.00;103095.81;5074013;28;20063;-69
2022/02/27 00:06:13;;;;;;;54.05;29.92;;;;;;;-0.73;100.00;103090.06;5074197;28;20036;-69
2022/02/27 00:08:39;;;;;;;50.88;29.40;;;;;;;-0.74;100.00;103091.75;5074311;28;20021;-70
2022/02/27 00:11:04;;;;;;;54.75;31.35;;;;;;;-0.65;100.00;103086.44;5074109;28;20013;-70
2022/02/27 00:13:29;;;;;;;54.72;31.27;;;;;;;-0.68;100.00;103088.78;5074242;28;20111;-69
2022/02/27 00:15:55;;;;;;;55.17;32.10;;;;;;;-0.58;100.00;103090.50;5073844;28;20111;-69
2022/02/27 00:18:20;;;;;;;53.88;31.08;;;;;;;-0.60;100.00;103076.44;5073992;28;20132;-70
2022/02/27 00:20:47;;;;;;;53.65;29.27;;;;;;;-0.59;100.00;103086.97;5073973;28;20493;-69
2022/02/27 00:23:12;;;;;;;51.28;29.45;;;;;;;-0.59;100.00;103086.06;5073774;28;20104;-69
2022/02/27 00:25:38;;;;;;;52.13;29.98;;;;;;;-0.67;100.00;103081.88;5073570;28;20100;-70
2022/02/27 00:28:03;;;;;;;51.75;29.52;;;;;;;-0.84;100.00;103089.16;5073644;28;20029;-69
2022/02/27 00:30:29;;;;;;;50.05;28.88;;;;;;;-0.95;100.00;103085.59;5073571;28;20025;-69
2022/02/27 00:32:54;;;;;;;52.72;30.83;;;;;;;-0.94;100.00;103078.75;5073818;28;20020;-69
2022/02/27 00:35:19;;;;;;;58.03;34.17;;;;;;;-0.95;100.00;103088.19;5073468;28;20051;-70
2022/02/27 00:37:45;;;;;;;55.95;32.90;;;;;;;-1.05;100.00;103075.19;5073657;28;20455;-70
2022/02/27 00:40:11;;;;;;;55.40;31.70;;;;;;;-1.04;100.00;103083.91;5073561;28;20035;-72
2022/02/27 00:42:37;;;;;;;51.00;28.75;;;;;;;-1.01;100.00;103082.47;5073557;28;20031;-72
2022/02/27 00:45:04;;;;;;;53.72;29.38;;;;;;;-0.97;100.00;103078.47;5073292;28;20371;-70
2022/02/27 00:47:29;;;;;;;48.75;27.50;;;;;;;-0.89;100.00;103083.56;5073420;28;20067;-70
2022/02/27 00:49:54;;;;;;;48.97;27.02;;;;;;;-0.92;100.00;103077.19;5073104;28;20125;-70
2022/02/27 00:52:22;;;;;;;51.00;27.33;;;;;;;-1.00;100.00;103083.41;5073235;28;20463;-71
2022/02/27 00:54:51;;;;;;;45.58;24.98;;;;;;;-0.92;100.00;103082.38;5073560;28;20020;-70
2022/02/27 00:57:16;;;;;;;44.20;25.45;;;;;;;-1.08;100.00;103074.94;5072989;28;20028;-70
2022/02/27 00:59:45;;;;;;;47.03;26.05;;;;;;;-1.13;100.00;103069.34;5073052;28;20024;-70
2022/02/27 01:02:14;;;;;;;46.60;25.13;;;;;;;-1.00;100.00;103079.13;5073119;28;20481;-70
2022/02/27 01:04:39;;;;;;;42.58;24.48;;;;;;;-1.00;100.00;103075.63;5073106;28;20121;-70
2022/02/27 01:07:04;;;;;;;43.60;24.05;;;;;;;-0.93;100.00;103075.38;5072749;28;20483;-70
2022/02/27 01:09:30;;;;;;;44.15;23.00;;;;;;;-0.91;100.00;103069.50;5073161;28;20024;-70
2022/02/27 01:11:55;;;;;;;44.80;23.95;;;;;;;-0.93;100.00;103080.56;5072688;28;20483;-70
2022/02/27 01:14:21;;;;;;;44.63;23.58;;;;;;;-0.95;100.00;103066.53;5072981;28;20379;-70
2022/02/27 01:16:46;;;;;;;42.00;23.13;;;;;;;-1.05;100.00;103072.59;5072958;28;20059;-70
2022/02/27 01:19:12;;;;;;;43.58;23.92;;;;;;;-1.09;100.00;103066.25;5072630;28;20027;-71
2022/02/27 01:21:38;;;;;;;42.60;22.63;;;;;;;-1.19;100.00;103066.22;5072615;28;20032;-71
2022/02/27 01:24:05;;;;;;;41.03;22.65;;;;;;;-1.12;100.00;103065.03;5071182;28;20029;-72
2022/02/27 01:26:30;;;;;;;43.75;23.50;;;;;;;-1.11;100.00;103060.00;5072609;28;20379;-71
2022/02/27 01:28:55;;;;;;;45.42;24.15;;;;;;;-1.19;100.00;103066.22;5072574;28;20025;-71
2022/02/27 01:31:21;;;;;;;44.20;24.77;;;;;;;-1.19;100.00;103073.06;5072865;28;20070;-71
2022/02/27 01:33:46;;;;;;;44.58;24.20;;;;;;;-1.21;100.00;103061.66;5072110;28;20073;-71
2022/02/27 01:36:11;;;;;;;44.60;24.08;;;;;;;-1.22;100.00;103060.75;5072841;28;20048;-71
2022/02/27 01:38:37;;;;;;;42.50;23.42;;;;;;;-1.27;100.00;103057.78;5072808;28;20017;-71
2022/02/27 01:41:02;;;;;;;42.28;23.63;;;;;;;-1.24;100.00;103067.47;5072570;28;20020;-71
2022/02/27 01:43:28;;;;;;;45.60;24.15;;;;;;;-1.31;100.00;103060.88;5072650;28;20499;-71
2022/02/27 01:45:53;;;;;;;44.75;24.23;;;;;;;-1.31;100.00;103066.06;5072362;28;20054;-71
2022/02/27 01:48:19;;;;;;;44.75;23.63;;;;;;;-1.38;100.00;103063.69;5071201;28;20483;-71
2022/02/27 01:50:44;;;;;;;43.20;23.95;;;;;;;-1.46;100.00;103057.81;5072732;28;20040;-71
2022/02/27 01:53:09;;;;;;;44.60;23.30;;;;;;;-1.39;100.00;103066.16;5071328;28;20032;-70
2022/02/27 01:55:35;;;;;;;43.70;22.70;;;;;;;-1.44;100.00;103058.88;5072422;28;20483;-71
2022/02/27 01:58:00;;;;;;;43.83;23.02;;;;;;;-1.43;100.00;103059.75;5071209;28;20463;-71
2022/02/27 02:00:26;;;;;;;42.78;22.20;;;;;;;-1.49;100.00;103060.13;5072340;28;20063;-71
2022/02/27 02:02:51;;;;;;;41.17;22.42;;;;;;;-1.50;100.00;103060.94;5072375;28;20137;-70
2022/02/27 02:05:17;;;;;;;41.70;21.98;;;;;;;-1.54;100.00;103061.41;5072611;28;20024;-70
2022/02/27 02:07:43;;;;;;;39.80;21.90;;;;;;;-1.60;100.00;103055.69;5072368;28;20461;-71
2022/02/27 02:10:09;;;;;;;38.85;20.23;;;;;;;-1.52;100.00;103048.59;5072451;28;20059;-70
2022/02/27 02:12:34;;;;;;;39.67;20.23;;;;;;;-1.47;100.00;103053.41;5072414;28;20093;-70
2022/02/27 02:15:00;;;;;;;37.08;19.48;;;;;;;-1.42;100.00;103053.81;5072653;28;20033;-71
2022/02/27 02:17:26;;;;;;;37.15;18.98;;;;;;;-1.37;100.00;103054.22;5072637;28;20475;-70
2022/02/27 02:19:55;;;;;;;39.75;19.00;;;;;;;-1.32;100.00;103058.13;5072147;28;20028;-72
2022/02/27 02:22:21;;;;;;;38.45;20.77;;;;;;;-1.38;100.00;103058.50;5070793;28;20398;-73
2022/02/27 02:24:47;;;;;;;39.17;20.58;;;;;;;-1.54;100.00;103063.09;5072351;28;20111;-72
2022/02/27 02:27:13;;;;;;;37.40;19.00;;;;;;;-1.60;100.00;103058.28;5071838;28;20027;-70
2022/02/27 02:29:38;;;;;;;35.30;20.13;;;;;;;-1.74;100.00;103056.16;5071874;28;20035;-71
2022/02/27 02:32:04;;;;;;;36.45;20.15;;;;;;;-1.84;100.00;103050.09;5072355;28;20028;-71
2022/02/27 02:34:29;;;;;;;36.13;19.27;;;;;;;-1.90;100.00;103053.84;5072139;28;20115;-71
2022/02/27 02:36:56;;;;;;;35.50;18.73;;;;;;;-1.82;100.00;103053.78;5074114;28;20033;-71
2022/02/27 02:39:24;;;;;;;38.78;19.15;;;;;;;-1.91;100.00;103041.66;5075892;28;20117;-71
2022/02/27 02:41:50;;;;;;;37.72;19.25;;;;;;;-1.85;100.00;103037.00;5075677;28;20067;-71
2022/02/27 02:44:15;;;;;;;36.38;18.35;;;;;;;-1.90;100.00;103040.88;5075464;28;20479;-71
2022/02/27 02:46:42;;;;;;;35.38;18.95;;;;;;;-1.91;100.00;103047.72;5075714;28;20040;-70
2022/02/27 02:49:09;;;;;;;39.88;18.88;;;;;;;-1.93;100.00;103044.13;5075551;28;20040;-71
2022/02/27 02:51:35;;;;;;;36.20;18.42;;;;;;;-1.96;100.00;103038.66;5075431;28;20526;-71
2022/02/27 02:54:01;;;;;;;36.63;19.05;;;;;;;-2.07;100.00;103029.88;5075670;28;20103;-71
2022/02/27 02:56:26;;;;;;;35.38;19.10;;;;;;;-2.03;100.00;103033.69;5075651;28;20036;-71
2022/02/27 02:58:51;;;;;;;37.53;18.60;;;;;;;-2.01;100.00;103029.53;5075234;28;20032;-71
2022/02/27 03:01:19;;;;;;;37.08;18.17;;;;;;;-1.99;100.00;103030.59;5075862;28;20485;-71
2022/02/27 03:03:46;;;;;;;36.38;17.83;;;;;;;-2.01;100.00;103026.94;5075444;28;20430;-71
2022/02/27 03:06:13;;;;;;;35.47;17.48;;;;;;;-2.00;100.00;103027.06;5075191;28;20029;-71
2022/02/27 03:08:43;;;;;;;36.25;16.63;;;;;;;-1.97;100.00;103029.03;5075445;28;20039;-71
2022/02/27 03:11:08;;;;;;;36.83;16.80;;;;;;;-1.91;100.00;103027.00;5075153;28;20108;-71
2022/02/27 03:13:35;;;;;;;34.90;16.92;;;;;;;-1.88;100.00;103024.66;5075013;28;20044;-74
2022/02/27 03:16:00;;;;;;;34.60;16.63;;;;;;;-1.87;100.00;103029.09;5074021;28;20036;-71
2022/02/27 03:18:26;;;;;;;34.10;15.48;;;;;;;-1.83;100.00;103017.34;5074961;28;20017;-71
2022/02/27 03:20:51;;;;;;;33.95;15.98;;;;;;;-1.67;100.00;103017.91;5073651;28;20491;-71
2022/02/27 03:23:17;;;;;;;30.85;14.70;;;;;;;-1.53;100.00;103013.03;5075340;28;20031;-71
2022/02/27 03:25:43;;;;;;;35.00;15.00;;;;;;;-1.56;100.00;103011.06;5074717;28;20047;-70
2022/02/27 03:28:09;;;;;;;32.78;14.70;;;;;;;-1.49;100.00;103020.31;5074906;28;20115;-71
2022/02/27 03:30:36;;;;;;;31.90;14.10;;;;;;;-1.47;100.00;103014.50;5074872;28;20052;-71
2022/02/27 03:33:03;;;;;;;32.38;13.52;;;;;;;-1.42;100.00;103009.69;5075112;28;20465;-71
2022/02/27 03:35:29;;;;;;;33.72;13.32;;;;;;;-1.38;100.00;103016.06;5070646;28;20021;-72
2022/02/27 03:37:55;;;;;;;31.42;13.65;;;;;;;-1.48;100.00;103014.34;5074906;28;20170;-71
2022/02/27 03:40:21;;;;;;;33.33;14.10;;;;;;;-1.47;100.00;103009.31;5074946;28;20167;-71
2022/02/27 03:42:46;;;;;;;30.48;13.63;;;;;;;-1.47;100.00;103003.19;5074541;28;20028;-71
2022/02/27 03:45:14;;;;;;;31.35;12.82;;;;;;;-1.49;100.00;103004.75;5074534;28;20139;-72
2022/02/27 03:47:41;;;;;;;31.27;13.20;;;;;;;-1.50;100.00;103009.03;5074050;28;20036;-72
2022/02/27 03:50:07;;;;;;;29.42;13.43;;;;;;;-1.45;100.00;103012.03;5074554;28;20115;-72
2022/02/27 03:52:35;;;;;;;30.30;12.85;;;;;;;-1.48;100.00;103002.28;5074663;28;20125;-71
2022/02/27 03:55:01;;;;;;;30.10;13.25;;;;;;;-1.52;100.00;103000.19;5074599;28;20111;-72
2022/02/27 03:57:27;;;;;;;31.17;13.00;;;;;;;-1.55;100.00;102997.34;5074620;28;20356;-72
2022/02/27 03:59:52;;;;;;;29.90;12.73;;;;;;;-1.62;100.00;103010.53;5074329;28;20032;-71
2022/02/27 04:02:17;;;;;;;30.75;13.45;;;;;;;-1.64;100.00;103004.31;5074293;28;20020;-72
2022/02/27 04:04:43;;;;;;;30.30;13.50;;;;;;;-1.66;100.00;103009.38;5074594;28;20035;-71
2022/02/27 04:07:08;;;;;;;32.25;13.35;;;;;;;-1.63;100.00;103009.63;5074029;28;20119;-71
2022/02/27 04:09:33;;;;;;;29.60;13.05;;;;;;;-1.72;100.00;103005.31;5074174;28;20025;-72
2022/02/27 04:11:59;;;;;;;31.15;13.52;;;;;;;-1.77;100.00;103008.41;5074342;28;20048;-71
2022/02/27 04:14:24;;;;;;;31.08;13.88;;;;;;;-1.77;100.00;103008.41;5073927;28;20749;-71
2022/02/27 04:16:49;;;;;;;30.73;13.18;;;;;;;-1.82;100.00;103009.69;5073866;28;20539;-71
2022/02/27 04:19:15;;;;;;;32.25;13.85;;;;;;;-1.92;100.00;103014.81;5074409;28;20074;-72
2022/02/27 04:21:40;;;;;;;31.25;13.82;;;;;;;-2.01;100.00;103003.59;5073871;28;20475;-73
2022/02/27 04:24:05;;;;;;;32.08;13.38;;;;;;;-2.06;100.00;103010.09;5074077;28;20021;-73
2022/02/27 04:26:31;;;;;;;31.13;14.10;;;;;;;-2.09;100.00;103005.53;5073822;28;20024;-74
2022/02/27 04:28:56;;;;;;;29.77;13.85;;;;;;;-2.27;100.00;103004.78;5073756;28;20064;-72
2022/02/27 04:31:21;;;;;;;31.60;14.32;;;;;;;-2.21;100.00;102994.97;5073469;28;20165;-73
2022/02/27 04:33:47;;;;;;;30.33;13.48;;;;;;;-2.34;100.00;102995.53;5073764;28;20028;-72
2022/02/27 04:36:12;;;;;;;32.03;14.07;;;;;;;-2.29;100.00;102994.28;5073613;28;20027;-72
2022/02/27 04:38:38;;;;;;;29.05;13.43;;;;;;;-2.16;100.00;102991.09;5073630;28;20460;-72
2022/02/27 04:41:03;;;;;;;32.30;13.73;;;;;;;-2.05;100.00;102993.72;5073437;28;20029;-72
2022/02/27 04:43:29;;;;;;;31.70;13.45;;;;;;;-1.98;100.00;102991.84;5069248;28;20123;-73
2022/02/27 04:45:54;;;;;;;28.70;12.55;;;;;;;-1.94;100.00;103000.78;5073621;28;20111;-72
2022/02/27 04:48:20;;;;;;;29.00;12.95;;;;;;;-1.90;100.00;103004.59;5073185;28;20067;-72
2022/02/27 04:50:45;;;;;;;30.98;13.40;;;;;;;-2.05;100.00;103005.03;5073250;28;20036;-72
2022/02/27 04:53:10;;;;;;;29.20;12.68;;;;;;;-2.18;100.00;103005.59;5073522;28;20025;-74
2022/02/27 04:55:36;;;;;;;31.95;12.95;;;;;;;-2.27;100.00;103009.97;5073128;28;20024;-73
2022/02/27 04:58:01;;;;;;;33.35;13.32;;;;;;;-2.32;100.00;103011.22;5072882;28;20016;-73
2022/02/27 05:00:26;;;;;;;32.25;13.30;;;;;;;-2.39;100.00;102996.78;5072765;28;20035;-73
2022/02/27 05:02:52;;;;;;;30.13;13.73;;;;;;;-2.37;100.00;103000.44;5072904;28;20027;-72
2022/02/27 05:05:17;;;;;;;33.03;13.82;;;;;;;-2.41;100.00;103000.03;5071705;28;20055;-72
2022/02/27 05:07:42;;;;;;;32.10;13.95;;;;;;;-2.47;100.00;102995.19;5073351;28;20136;-72
2022/02/27 05:10:08;;;;;;;30.45;13.93;;;;;;;-2.51;100.00;102993.97;5073096;28;20428;-72
2022/02/27 05:12:38;;;;;;;30.95;14.02;;;;;;;-2.54;100.00;102992.81;5073195;28;20020;-73
2022/02/27 05:15:05;;;;;;;30.58;14.07;;;;;;;-2.58;100.00;102993.28;5069574;28;20537;-72
2022/02/27 05:17:31;;;;;;;30.55;13.73;;;;;;;-2.62;100.00;102992.09;5068893;28;20476;-73
2022/02/27 05:19:56;;;;;;;34.08;14.57;;;;;;;-2.51;100.00;102987.91;5073076;28;20024;-73
2022/02/27 05:22:22;;;;;;;31.98;14.43;;;;;;;-2.53;100.00;102986.84;5073138;28;20024;-73
2022/02/27 05:24:47;;;;;;;32.85;14.18;;;;;;;-2.51;100.00;102991.38;5072819;28;20025;-74
2022/02/27 05:27:13;;;;;;;33.38;14.13;;;;;;;-2.48;100.00;102989.06;5072944;28;20028;-73
2022/02/27 05:29:38;;;;;;;30.42;14.48;;;;;;;-2.53;100.00;102990.34;5068866;28;20541;-72
2022/02/27 05:32:03;;;;;;;30.17;13.88;;;;;;;-2.53;100.00;102990.34;5072620;28;20052;-73
2022/02/27 05:34:29;;;;;;;32.28;14.25;;;;;;;-2.61;100.00;102991.31;5072782;28;20032;-73
2022/02/27 05:36:54;;;;;;;33.00;14.50;;;;;;;-2.64;100.00;102991.97;5072591;28;20083;-72
2022/02/27 05:39:20;;;;;;;31.90;13.77;;;;;;;-2.73;100.00;102991.09;5072549;28;20047;-72
2022/02/27 05:41:45;;;;;;;33.17;14.00;;;;;;;-2.72;100.00;102987.75;5069502;28;20045;-72
2022/02/27 05:44:10;;;;;;;32.53;14.07;;;;;;;-2.81;100.00;102979.09;5072523;28;20035;-72
2022/02/27 05:46:36;;;;;;;31.05;14.00;;;;;;;-2.77;100.00;102985.50;5072376;28;20036;-72
2022/02/27 05:49:01;;;;;;;34.78;14.45;;;;;;;-2.78;100.00;102976.84;5072338;28;20055;-72
2022/02/27 05:51:26;;;;;;;30.95;14.00;;;;;;;-2.77;100.00;102982.91;5072410;28;20427;-72
2022/02/27 05:53:52;;;;;;;31.48;13.82;;;;;;;-2.77;100.00;102988.09;5072454;28;20082;-73
2022/02/27 05:56:17;;;;;;;32.03;13.45;;;;;;;-2.82;100.00;102988.56;5072583;28;20031;-71
2022/02/27 05:58:43;;;;;;;30.45;14.65;;;;;;;-2.83;100.00;102997.09;5072482;28;20356;-72
2022/02/27 06:01:09;;;;;;;31.38;14.40;;;;;;;-2.82;100.00;102990.25;5072433;28;20048;-72
2022/02/27 06:03:35;;;;;;;31.02;14.57;;;;;;;-2.86;100.00;102991.63;5079677;28;20482;-71
2022/02/27 06:06:00;;;;;;;30.00;14.15;;;;;;;-2.97;100.00;102992.34;5072215;28;20035;-71
2022/02/27 06:08:25;;;;;;;31.55;14.32;;;;;;;-2.95;100.00;102992.47;5072529;28;20460;-71
2022/02/27 06:10:51;;;;;;;32.50;14.40;;;;;;;-2.97;100.00;102994.94;5074568;28;20033;-70
2022/02/27 06:13:16;;;;;;;32.50;15.10;;;;;;;-2.95;100.00;102998.56;5074910;28;20384;-72
2022/02/27 06:15:41;;;;;;;33.15;15.02;;;;;;;-2.95;100.00;102998.56;5076511;28;20070;-72
2022/02/27 06:18:06;;;;;;;32.55;14.23;;;;;;;-2.92;100.00;103003.13;5073973;28;20033;-72
2022/02/27 06:20:32;;;;;;;32.25;14.98;;;;;;;-2.95;100.00;102998.56;5072634;28;20037;-72
2022/02/27 06:22:57;;;;;;;32.33;15.30;;;;;;;-2.93;100.00;102991.81;5074674;28;20032;-72
2022/02/27 06:25:23;;;;;;;34.78;16.02;;;;;;;-2.81;100.00;103003.34;5074683;28;20074;-71
2022/02/27 06:27:48;;;;;;;34.25;15.80;;;;;;;-2.75;100.00;102997.81;5074453;28;20025;-71
2022/02/27 06:30:18;;;;;;;34.42;16.50;;;;;;;-2.67;100.00;102993.34;5074116;28;20029;-72
2022/02/27 06:32:47;;;;;;;32.88;16.17;;;;;;;-2.56;100.00;102987.47;5074257;28;20380;-72
2022/02/27 06:35:12;;;;;;;33.78;15.70;;;;;;;-2.42;100.00;102993.00;5074465;28;20031;-73
2022/02/27 06:37:38;;;;;;;32.83;14.82;;;;;;;-2.33;100.00;102992.19;5074943;28;20016;-72
2022/02/27 06:40:05;;;;;;;32.05;14.57;;;;;;;-2.24;100.00;102992.09;5073930;28;20025;-72
2022/02/27 06:42:31;;;;;;;31.73;14.85;;;;;;;-2.16;100.00;102996.28;5074295;28;20036;-72
2022/02/27 06:44:56;;;;;;;30.77;14.27;;;;;;;-2.14;100.00;102997.34;5072988;28;20025;-72
2022/02/27 06:47:21;;;;;;;27.50;13.27;;;;;;;-2.08;100.00;102996.97;5074086;28;20036;-74
2022/02/27 06:49:47;;;;;;;29.88;13.38;;;;;;;-1.98;100.00;103006.47;5073258;28;20044;-74
2022/02/27 06:52:12;;;;;;;31.25;14.00;;;;;;;-1.98;100.00;103003.88;5074613;28;20028;-73
2022/02/27 06:54:37;;;;;;;31.20;13.52;;;;;;;-1.97;100.00;103003.13;5074246;28;20032;-73
2022/02/27 06:57:03;;;;;;;29.35;12.98;;;;;;;-1.93;100.00;103013.00;5074198;28;20091;-74
2022/02/27 06:59:28;;;;;;;30.48;13.07;;;;;;;-1.91;100.00;103010.53;5073337;28;20479;-75
2022/02/27 07:01:54;;;;;;;30.50;12.93;;;;;;;-1.87;100.00;103018.72;5072506;28;20120;-73
2022/02/27 07:04:19;;;;;;;28.85;12.57;;;;;;;-1.81;100.00;103014.06;5071995;28;20071;-72
2022/02/27 07:06:44;;;;;;;31.20;12.65;;;;;;;-1.78;100.00;103009.19;5073690;28;20524;-72
2022/02/27 07:09:10;;;;;;;29.00;12.43;;;;;;;-1.74;100.00;103009.47;5072867;28;20029;-72
2022/02/27 07:11:35;;;;;;;29.98;12.63;;;;;;;-1.65;100.00;103011.16;5072961;28;20079;-74
2022/02/27 07:14:01;;;;;;;29.42;12.00;;;;;;;-1.58;100.00;103012.63;5073945;28;20017;-72
2022/02/27 07:16:26;;;;;;;29.38;11.20;;;;;;;-1.54;100.00;103011.19;5073575;28;20115;-73
2022/02/27 07:18:53;;;;;;;28.48;11.18;;;;;;;-1.46;100.00;103005.00;5073320;28;20025;-72
2022/02/27 07:21:19;;;;;;;28.98;11.35;;;;;;;-1.42;100.00;103004.50;5072481;28;20029;-72
2022/02/27 07:23:44;;;;;;;27.50;10.88;;;;;;;-1.32;100.00;103001.94;5072525;28;20108;-72
2022/02/27 07:26:10;;;;;;;28.33;11.15;;;;;;;-1.19;100.00;102998.72;5073472;28;20052;-72
2022/02/27 07:28:35;;;;;;;26.88;10.63;;;;;;;-1.09;100.00;102998.75;5073120;28;20036;-71
2022/02/27 07:31:00;;;;;;;28.63;10.75;;;;;;;-0.99;100.00;102997.84;5073126;28;20394;-72
2022/02/27 07:33:26;;;;;;;29.98;10.75;;;;;;;-0.88;100.00;102997.06;5073254;28;20436;-71
2022/02/27 07:35:51;;;;;;;27.98;10.05;;;;;;;-0.77;100.00;102999.66;5073623;28;20569;-73
2022/02/27 07:38:17;;;;;;;28.30;9.95;;;;;;;-0.63;100.00;102988.75;5073621;28;20070;-73
2022/02/27 07:40:42;;;;;;;25.40;9.43;;;;;;;-0.53;100.00;102995.63;5073143;28;21540;-73
2022/02/27 07:43:08;;;;;;;26.33;9.32;;;;;;;-0.45;100.00;102999.78;5073452;28;20017;-71
2022/02/27 07:45:33;;;;;;;26.45;8.85;;;;;;;-0.38;100.00;102994.31;5072928;28;20436;-72
2022/02/27 07:47:58;;;;;;;25.83;8.88;;;;;;;-0.22;100.00;102988.69;5073015;28;20028;-71
2022/02/27 07:50:24;;;;;;;24.88;8.65;;;;;;;-0.04;100.00;102993.59;5073213;28;20025;-71
2022/02/27 07:52:49;;;;;;;26.70;8.70;;;;;;;0.13;100.00;102992.34;5073306;28;20020;-71
2022/02/27 07:55:15;;;;;;;25.75;9.15;;;;;;;0.32;100.00;102990.47;5073470;28;20116;-71
2022/02/27 07:57:40;;;;;;;25.00;7.90;;;;;;;0.51;100.00;103002.31;5073013;28;20078;-72
2022/02/27 08:00:06;;;;;;;24.20;7.85;;;;;;;0.69;100.00;103005.50;5072381;28;20025;-72
2022/02/27 08:02:32;;;;;;;24.20;7.82;;;;;;;0.88;100.00;102999.13;5073015;28;20445;-72
2022/02/27 08:04:57;;;;;;;25.20;7.60;;;;;;;1.06;100.00;103000.53;5073163;28;20021;-72
2022/02/27 08:07:22;;;;;;;22.95;7.60;;;;;;;1.24;100.00;103006.28;5072864;28;20133;-72
2022/02/27 08:09:48;;;;;;;25.55;7.30;;;;;;;1.45;100.00;102999.19;5072484;28;20017;-72
2022/02/27 08:12:13;;;;;;;24.83;7.30;;;;;;;1.71;100.00;103005.47;5071231;28;20036;-72
2022/02/27 08:14:38;;;;;;;22.73;6.82;;;;;;;1.81;100.00;103012.28;5072924;28;20029;-70
2022/02/27 08:17:04;;;;;;;23.60;7.07;;;;;;;1.98;100.00;103011.84;5072936;28;20021;-71
2022/02/27 08:19:29;;;;;;;24.85;7.00;;;;;;;2.09;100.00;103003.06;5072479;28;20029;-70
2022/02/27 08:21:54;;;;;;;20.13;6.43;;;;;;;2.23;100.00;103004.09;5072119;28;20078;-70
2022/02/27 08:24:20;;;;;;;22.80;6.90;;;;;;;2.38;100.00;103008.63;5072155;28;20481;-70
2022/02/27 08:26:45;;;;;;;23.52;7.03;;;;;;;2.57;100.00;103000.41;5072382;28;20483;-69
2022/02/27 08:29:10;;;;;;;22.15;6.85;;;;;;;2.66;100.00;103016.72;5071922;28;20047;-70
2022/02/27 08:31:40;;;;;;;23.58;7.20;;;;;;;2.75;100.00;103017.41;5071606;28;20501;-71
2022/02/27 08:34:06;;;;;;;21.10;6.40;;;;;;;2.83;100.00;103003.97;5072341;28;20021;-70
2022/02/27 08:36:31;;;;;;;23.38;6.90;;;;;;;2.83;100.00;103020.53;5072053;28;20070;-70
2022/02/27 08:38:59;;;;;;;23.08;7.38;;;;;;;2.75;100.00;103017.41;5071617;28;20017;-69
2022/02/27 08:41:26;;;;;;;23.67;7.18;;;;;;;2.78;100.00;103014.06;5071794;28;20544;-69
2022/02/27 08:43:51;;;;;;;22.58;7.20;;;;;;;2.77;100.00;103017.50;5072535;28;20024;-69
2022/02/27 08:46:16;;;;;;;22.67;6.90;;;;;;;3.00;100.00;103026.03;5073398;28;20074;-69
2022/02/27 08:48:42;;;;;;;23.48;6.90;;;;;;;3.06;100.00;103006.47;5073239;28;20132;-70
2022/02/27 08:51:07;;;;;;;22.25;7.50;;;;;;;3.23;100.00;103022.41;5073183;28;20489;-70
2022/02/27 08:53:32;;;;;;;22.00;7.10;;;;;;;3.22;99.35;103008.44;5073367;28;20036;-70
2022/02/27 08:55:58;;;;;;;22.90;6.93;;;;;;;3.33;99.46;103014.41;5073116;28;20021;-70
2022/02/27 08:58:23;;;;;;;23.17;7.40;;;;;;;3.38;100.00;103019.94;5071771;28;20076;-70
2022/02/27 09:00:48;;;;;;;22.85;7.40;;;;;;;3.48;99.79;103017.13;5073254;28;20027;-70
2022/02/27 09:03:15;;;;;;;22.50;7.30;;;;;;;3.59;98.73;103010.94;5071796;28;20070;-70
2022/02/27 09:05:40;;;;;;;22.98;7.43;;;;;;;3.60;95.63;103017.09;5072686;28;20017;-70
2022/02/27 09:08:06;;;;;;;21.17;6.80;;;;;;;3.76;93.10;103014.69;5073042;28;20031;-70
2022/02/27 09:10:31;;;;;;;22.73;7.07;;;;;;;3.84;94.25;103016.13;5072868;28;20027;-70
2022/02/27 09:12:56;;;;;;;24.23;7.25;;;;;;;4.07;93.71;103014.09;5073116;28;20471;-70
2022/02/27 09:15:22;;;;;;;21.85;7.03;;;;;;;4.20;91.56;103021.03;5073021;28;20116;-70
2022/02/27 09:17:47;;;;;;;21.08;6.95;;;;;;;4.27;91.62;103007.56;5072788;28;20020;-71
2022/02/27 09:20:14;;;;;;;22.98;7.13;;;;;;;4.33;91.99;103025.38;5072695;28;20033;-71
2022/02/27 09:22:39;;;;;;;23.70;7.13;;;;;;;4.40;90.22;103026.66;5072943;28;20364;-70
2022/02/27 09:25:06;;;;;;;21.70;6.93;;;;;;;4.35;89.48;103023.75;5072631;28;20028;-70
2022/02/27 09:27:31;;;;;;;21.23;6.63;;;;;;;4.49;87.88;103012.44;5072392;28;20036;-70
2022/02/27 09:29:57;;;;;;;21.65;7.05;;;;;;;4.89;88.42;103022.84;5072824;28;20028;-70
2022/02/27 09:32:22;;;;;;;22.05;7.10;;;;;;;5.19;84.69;103009.78;5072610;28;20057;-71
2022/02/27 09:34:47;;;;;;;21.90;6.80;;;;;;;5.26;81.72;103012.78;5072618;28;20021;-70
2022/02/27 09:37:13;;;;;;;22.70;6.57;;;;;;;5.25;81.51;103006.63;5072740;28;20490;-70
2022/02/27 09:39:38;;;;;;;22.50;7.00;;;;;;;5.30;80.87;103015.69;5072823;28;20051;-70
2022/02/27 09:42:05;;;;;;;21.90;6.50;;;;;;;5.41;81.17;103009.34;5072629;28;20029;-70
2022/02/27 09:44:40;;;;;;;21.42;6.75;;;;;;;5.56;78.19;103001.53;5068534;28;20033;-70
2022/02/27 09:47:15;;;;;;;21.75;6.43;;;;;;;5.70;79.67;102996.19;5072338;28;20033;-70
2022/02/27 09:49:46;;;;;;;21.08;6.45;;;;;;;5.88;78.12;102998.94;5072622;28;20047;-70
2022/02/27 09:52:13;;;;;;;20.80;6.50;;;;;;;5.88;76.48;103001.56;5072251;28;20035;-70
2022/02/27 09:54:38;;;;;;;21.33;6.40;;;;;;;6.11;76.09;103000.31;5072746;28;20028;-70
2022/02/27 09:57:04;;;;;;;20.50;6.43;;;;;;;6.23;73.71;102995.78;5072440;28;20863;-71
2022/02/27 09:59:29;;;;;;;20.58;6.50;;;;;;;6.50;71.55;102994.59;5072617;28;20067;-71
2022/02/27 10:02:03;;;;;;;19.85;6.32;;;;;;;6.91;72.58;103009.09;5072678;28;20047;-71
2022/02/27 10:04:40;;;;;;;20.05;6.60;;;;;;;7.44;69.12;102999.56;5068515;28;20024;-71
2022/02/27 10:07:11;;;;;;;21.50;6.65;;;;;;;7.78;66.25;102982.88;5072082;28;20029;-71
2022/02/27 10:09:38;;;;;;;20.63;6.43;;;;;;;8.11;63.10;102993.25;5072231;28;20033;-71
2022/02/27 10:12:13;;;;;;;20.17;6.40;;;;;;;8.42;63.64;102985.09;5072575;28;20052;-71
2022/02/27 10:14:39;;;;;;;20.38;6.50;;;;;;;8.28;61.71;102989.69;5068295;28;20028;-71
2022/02/27 10:17:05;;;;;;;21.42;6.40;;;;;;;8.14;60.68;102994.31;5070550;28;20043;-71
2022/02/27 10:19:36;;;;;;;20.60;6.45;;;;;;;8.73;62.79;102987.44;5070582;28;20056;-71
2022/02/27 10:22:03;;;;;;;19.80;6.28;;;;;;;9.33;58.88;102986.56;5070309;28;20021;-71
2022/02/27 10:24:28;;;;;;;20.73;6.32;;;;;;;9.79;55.79;102985.00;5070683;28;20115;-71
2022/02/27 10:26:53;;;;;;;20.42;6.03;;;;;;;10.09;54.50;102982.72;5070371;28;20115;-71
2022/02/27 10:29:24;;;;;;;20.88;6.65;;;;;;;10.58;52.61;102980.25;5070732;28;20024;-71
2022/02/27 10:31:52;;;;;;;19.08;5.82;;;;;;;10.88;46.31;102987.50;5070610;28;20024;-71
2022/02/27 10:34:29;;;;;;;20.85;6.43;;;;;;;10.80;47.01;102982.88;5068619;28;20021;-71
2022/02/27 10:37:15;;;;;;;22.00;6.43;;;;;;;11.13;46.73;102970.81;5068669;28;20032;-71
2022/02/27 10:39:46;;;;;;;18.95;5.75;;;;;;;11.08;43.24;102969.72;5070900;28;20056;-71
2022/02/27 10:42:21;;;;;;;20.45;6.57;;;;;;;11.36;44.67;102976.00;5071849;28;20052;-71
2022/02/27 10:44:52;;;;;;;20.85;6.03;;;;;;;11.72;43.16;102965.75;5071884;28;20025;-71
2022/02/27 10:47:27;;;;;;;20.08;5.93;;;;;;;11.45;44.25;102971.94;5068126;28;20080;-71
2022/02/27 10:49:55;;;;;;;20.30;6.00;;;;;;;11.17;43.70;102967.44;5068764;28;20044;-71
2022/02/27 10:52:23;;;;;;;20.13;6.20;;;;;;;11.55;42.40;102969.59;5072000;28;20048;-71
2022/02/27 10:55:07;;;;;;;20.02;6.28;;;;;;;12.20;41.95;102978.84;5071764;28;20854;-70
2022/02/27 10:57:35;;;;;;;21.17;6.13;;;;;;;12.54;40.32;102966.63;5071457;28;20108;-70
2022/02/27 11:00:12;;;;;;;20.05;6.22;;;;;;;12.67;39.94;102972.31;5075261;28;20107;-70
2022/02/27 11:02:38;;;;;;;19.85;6.20;;;;;;;12.96;38.79;102962.53;5075494;28;20101;-69